Home PIREPS Pireps

Flight SAB2283

  • Submitted By: Vincent Fourni
  • Departure Airport: Bruxelles National (EBBR)
  • Arrival Airport: Oslo Airport, Gardermoen (ENGM)
  • Aircraft: B737-500 (OO-SAB)
  • Flight Time: 01.40
  • Date Submitted: 31/12/2017
  • Status: Accepted
Flight Details
Gross Revenue:
(123 load / € 0.00 per unit
€ 0.00
Fuel Cost:
(3809 fuel used @ 5.1 / unit)
€ 19,425.90

Additional Log Information:

View Log

Aircraft Used in flight is PMDG 737-800NGX Brussels Airlines Winglets
16:41 Brakes are On
16:42 Brakes are Released
16:44 Brakes are On
16:44 Brakes are Released
16:46 Brakes are On
16:48 Brakes are Released
16:52 You Took off @ 151 Knots and Flaps at Position 3
Departure Weather
EBBR 311520Z 24013KT 4200 -RA BKN009 BKN027 11/09 Q0999 TEMPO 21025G45KT 2500 RA SHRA BKN007 BKN012CBrn
16:52 Landing Gear Up @ 162 Knots and 780 Feet
18:07 Below 10000 feet you are not allowed to go over 250 knots
18:07 Below FL100 you need to turn on the landing lights
18:16 Landing Gear Down @ 210 Knots and 1970 Feet
18:17 You Landed @ 146 Knots and with -1100 Vertical Speed
Arrival Weather
ENGM 311650Z 03005KT 2000 SN VV005 M04/M05 Q0989 TEMPO 1000 SN BR VV003rn
18:17 Your Landing was very hard
18:17 Paused
18:22 Unpaused
18:22 Brakes are On
18:27 Brussels Bel-Track1.0.1.2

Route Map

Corporate About Us Our Team Vacancies Information Fleet Route Network Rules and Regulations Operations Flight Schedules Event Center Tours Partners IVAO Vatsim Acars dev FSCB

fb Users Online No pilots online!
0 Pilot(s) and 118 Guest(s) Online
CMS by phpVMS - Design by Crazycreatives.com - Copyright © 2020 - Brussels Airlines Virtual